sensor_id;sensor_type;location;lat;lon;timestamp;P1;durP1;ratioP1;P2;durP2;ratioP2
53857;SDS011;39763;51.188;6.690;2022-10-16T00:01:20;11.90;;;4.65;;
53857;SDS011;39763;51.188;6.690;2022-10-16T00:02:52;9.77;;;4.28;;
53857;SDS011;39763;51.188;6.690;2022-10-16T00:04:24;9.82;;;4.40;;
53857;SDS011;39763;51.188;6.690;2022-10-16T00:05:58;8.70;;;3.83;;
53857;SDS011;39763;51.188;6.690;2022-10-16T00:07:30;9.93;;;4.50;;
53857;SDS011;39763;51.188;6.690;2022-10-16T00:09:02;8.40;;;3.65;;
53857;SDS011;39763;51.188;6.690;2022-10-16T00:10:34;9.57;;;4.03;;
53857;SDS011;39763;51.188;6.690;2022-10-16T00:12:06;9.13;;;4.28;;
53857;SDS011;39763;51.188;6.690;2022-10-16T00:13:39;11.45;;;4.00;;
53857;SDS011;39763;51.188;6.690;2022-10-16T00:15:14;9.82;;;4.35;;
53857;SDS011;39763;51.188;6.690;2022-10-16T00:16:46;9.10;;;4.07;;
53857;SDS011;39763;51.188;6.690;2022-10-16T00:18:17;10.02;;;3.75;;
53857;SDS011;39763;51.188;6.690;2022-10-16T00:19:49;8.68;;;3.72;;
53857;SDS011;39763;51.188;6.690;2022-10-16T00:21:21;9.77;;;3.63;;
53857;SDS011;39763;51.188;6.690;2022-10-16T00:22:55;10.50;;;3.80;;
53857;SDS011;39763;51.188;6.690;2022-10-16T00:24:27;8.80;;;3.47;;
53857;SDS011;39763;51.188;6.690;2022-10-16T00:26:00;10.50;;;3.60;;
53857;SDS011;39763;51.188;6.690;2022-10-16T00:27:33;9.77;;;3.80;;
53857;SDS011;39763;51.188;6.690;2022-10-16T00:29:05;7.90;;;3.40;;
53857;SDS011;39763;51.188;6.690;2022-10-16T00:30:38;10.95;;;4.32;;
53857;SDS011;39763;51.188;6.690;2022-10-16T00:32:10;6.90;;;3.00;;
53857;SDS011;39763;51.188;6.690;2022-10-16T00:33:42;8.93;;;3.35;;
53857;SDS011;39763;51.188;6.690;2022-10-16T00:35:15;9.43;;;3.60;;
53857;SDS011;39763;51.188;6.690;2022-10-16T00:36:46;7.40;;;3.08;;
53857;SDS011;39763;51.188;6.690;2022-10-16T00:38:18;8.80;;;3.13;;
53857;SDS011;39763;51.188;6.690;2022-10-16T00:39:49;8.07;;;3.28;;
53857;SDS011;39763;51.188;6.690;2022-10-16T00:41:22;7.70;;;3.13;;
53857;SDS011;39763;51.188;6.690;2022-10-16T00:42:55;8.63;;;3.70;;
53857;SDS011;39763;51.188;6.690;2022-10-16T00:44:43;8.63;;;3.20;;
53857;SDS011;39763;51.188;6.690;2022-10-16T00:46:19;9.75;;;3.67;;
53857;SDS011;39763;51.188;6.690;2022-10-16T00:47:53;8.98;;;3.55;;
53857;SDS011;39763;51.188;6.690;2022-10-16T00:49:26;9.68;;;3.58;;
53857;SDS011;39763;51.188;6.690;2022-10-16T00:50:58;9.85;;;3.28;;
53857;SDS011;39763;51.188;6.690;2022-10-16T00:52:32;10.13;;;3.30;;
53857;SDS011;39763;51.188;6.690;2022-10-16T00:54:06;7.70;;;3.50;;
53857;SDS011;39763;51.188;6.690;2022-10-16T00:55:41;7.95;;;3.40;;
53857;SDS011;39763;51.188;6.690;2022-10-16T00:57:13;7.43;;;2.92;;
53857;SDS011;39763;51.188;6.690;2022-10-16T00:58:50;8.55;;;3.33;;
53857;SDS011;39763;51.188;6.690;2022-10-16T01:00:23;9.40;;;3.30;;
53857;SDS011;39763;51.188;6.690;2022-10-16T01:01:57;7.55;;;3.20;;
53857;SDS011;39763;51.188;6.690;2022-10-16T01:03:33;9.70;;;3.53;;
53857;SDS011;39763;51.188;6.690;2022-10-16T01:05:07;9.55;;;3.15;;
53857;SDS011;39763;51.188;6.690;2022-10-16T01:06:41;6.07;;;2.90;;
53857;SDS011;39763;51.188;6.690;2022-10-16T01:08:19;6.50;;;2.83;;
53857;SDS011;39763;51.188;6.690;2022-10-16T01:10:02;8.02;;;3.30;;
53857;SDS011;39763;51.188;6.690;2022-10-16T01:11:43;9.32;;;3.03;;
53857;SDS011;39763;51.188;6.690;2022-10-16T01:13:21;9.63;;;3.47;;
53857;SDS011;39763;51.188;6.690;2022-10-16T01:14:56;8.98;;;3.22;;
53857;SDS011;39763;51.188;6.690;2022-10-16T01:16:34;9.35;;;3.20;;
53857;SDS011;39763;51.188;6.690;2022-10-16T01:18:11;7.50;;;2.97;;
53857;SDS011;39763;51.188;6.690;2022-10-16T01:19:50;7.50;;;3.05;;
53857;SDS011;39763;51.188;6.690;2022-10-16T01:21:35;9.80;;;3.80;;
53857;SDS011;39763;51.188;6.690;2022-10-16T01:23:10;7.60;;;3.20;;
53857;SDS011;39763;51.188;6.690;2022-10-16T01:24:51;10.15;;;3.60;;
53857;SDS011;39763;51.188;6.690;2022-10-16T01:26:30;9.52;;;3.08;;
53857;SDS011;39763;51.188;6.690;2022-10-16T01:28:13;8.00;;;3.47;;
53857;SDS011;39763;51.188;6.690;2022-10-16T01:29:49;9.55;;;3.55;;
53857;SDS011;39763;51.188;6.690;2022-10-16T01:31:25;11.45;;;3.78;;
53857;SDS011;39763;51.188;6.690;2022-10-16T01:33:01;9.75;;;3.40;;
53857;SDS011;39763;51.188;6.690;2022-10-16T01:34:38;11.90;;;3.92;;
53857;SDS011;39763;51.188;6.690;2022-10-16T01:36:19;8.95;;;3.22;;
53857;SDS011;39763;51.188;6.690;2022-10-16T01:37:58;7.50;;;3.00;;
53857;SDS011;39763;51.188;6.690;2022-10-16T01:39:35;10.32;;;3.42;;
53857;SDS011;39763;51.188;6.690;2022-10-16T01:41:11;7.30;;;3.00;;
53857;SDS011;39763;51.188;6.690;2022-10-16T01:42:48;7.40;;;3.13;;
53857;SDS011;39763;51.188;6.690;2022-10-16T01:44:25;8.63;;;3.53;;
53857;SDS011;39763;51.188;6.690;2022-10-16T01:46:00;9.07;;;3.30;;
53857;SDS011;39763;51.188;6.690;2022-10-16T01:47:32;8.35;;;3.47;;
53857;SDS011;39763;51.188;6.690;2022-10-16T01:49:06;9.68;;;3.50;;
53857;SDS011;39763;51.188;6.690;2022-10-16T01:50:41;9.68;;;3.10;;
53857;SDS011;39763;51.188;6.690;2022-10-16T01:52:15;7.15;;;2.80;;
53857;SDS011;39763;51.188;6.690;2022-10-16T01:53:50;6.97;;;2.85;;
53857;SDS011;39763;51.188;6.690;2022-10-16T01:55:26;7.30;;;2.80;;
53857;SDS011;39763;51.188;6.690;2022-10-16T01:57:01;14.15;;;3.40;;
53857;SDS011;39763;51.188;6.690;2022-10-16T01:58:36;6.78;;;2.72;;
53857;SDS011;39763;51.188;6.690;2022-10-16T02:00:13;8.43;;;2.90;;
53857;SDS011;39763;51.188;6.690;2022-10-16T02:01:47;8.48;;;2.65;;
53857;SDS011;39763;51.188;6.690;2022-10-16T02:03:22;7.30;;;2.88;;
53857;SDS011;39763;51.188;6.690;2022-10-16T02:04:55;10.40;;;3.03;;
53857;SDS011;39763;51.188;6.690;2022-10-16T02:06:31;9.48;;;3.50;;
53857;SDS011;39763;51.188;6.690;2022-10-16T02:08:03;8.10;;;3.38;;
53857;SDS011;39763;51.188;6.690;2022-10-16T02:09:36;9.63;;;3.38;;
53857;SDS011;39763;51.188;6.690;2022-10-16T02:11:08;10.00;;;3.65;;
53857;SDS011;39763;51.188;6.690;2022-10-16T02:12:40;10.27;;;3.55;;
53857;SDS011;39763;51.188;6.690;2022-10-16T02:14:15;9.35;;;3.33;;
53857;SDS011;39763;51.188;6.690;2022-10-16T02:15:48;8.48;;;3.45;;
53857;SDS011;39763;51.188;6.690;2022-10-16T02:17:24;9.43;;;3.45;;
53857;SDS011;39763;51.188;6.690;2022-10-16T02:18:56;10.57;;;3.85;;
53857;SDS011;39763;51.188;6.690;2022-10-16T02:20:28;7.10;;;3.30;;
53857;SDS011;39763;51.188;6.690;2022-10-16T02:22:05;8.45;;;3.33;;
53857;SDS011;39763;51.188;6.690;2022-10-16T02:23:40;8.05;;;3.20;;
53857;SDS011;39763;51.188;6.690;2022-10-16T02:25:21;9.65;;;3.90;;
53857;SDS011;39763;51.188;6.690;2022-10-16T02:26:57;7.47;;;2.92;;
53857;SDS011;39763;51.188;6.690;2022-10-16T02:28:33;9.82;;;3.35;;
53857;SDS011;39763;51.188;6.690;2022-10-16T02:30:12;8.23;;;3.10;;
53857;SDS011;39763;51.188;6.690;2022-10-16T02:31:52;8.63;;;3.58;;
53857;SDS011;39763;51.188;6.690;2022-10-16T02:33:29;9.77;;;3.50;;
53857;SDS011;39763;51.188;6.690;2022-10-16T02:35:03;9.15;;;3.20;;
53857;SDS011;39763;51.188;6.690;2022-10-16T02:36:36;9.38;;;4.22;;
53857;SDS011;39763;51.188;6.690;2022-10-16T02:38:08;8.07;;;3.17;;
53857;SDS011;39763;51.188;6.690;2022-10-16T02:39:46;11.05;;;3.40;;
53857;SDS011;39763;51.188;6.690;2022-10-16T02:41:17;7.38;;;3.13;;
53857;SDS011;39763;51.188;6.690;2022-10-16T02:42:50;6.75;;;2.78;;
53857;SDS011;39763;51.188;6.690;2022-10-16T02:44:22;6.75;;;3.00;;
53857;SDS011;39763;51.188;6.690;2022-10-16T02:45:54;7.47;;;2.90;;
53857;SDS011;39763;51.188;6.690;2022-10-16T02:47:27;7.78;;;2.90;;
53857;SDS011;39763;51.188;6.690;2022-10-16T02:48:59;8.88;;;3.40;;
53857;SDS011;39763;51.188;6.690;2022-10-16T02:50:30;7.85;;;3.13;;
53857;SDS011;39763;51.188;6.690;2022-10-16T02:52:02;10.18;;;3.55;;
53857;SDS011;39763;51.188;6.690;2022-10-16T02:53:34;7.75;;;3.08;;
53857;SDS011;39763;51.188;6.690;2022-10-16T02:55:07;8.18;;;3.00;;
53857;SDS011;39763;51.188;6.690;2022-10-16T02:56:38;8.82;;;3.35;;
53857;SDS011;39763;51.188;6.690;2022-10-16T02:58:10;7.22;;;3.25;;
53857;SDS011;39763;51.188;6.690;2022-10-16T02:59:42;9.30;;;3.15;;
53857;SDS011;39763;51.188;6.690;2022-10-16T03:01:13;7.57;;;3.20;;
53857;SDS011;39763;51.188;6.690;2022-10-16T03:02:49;7.90;;;3.10;;
53857;SDS011;39763;51.188;6.690;2022-10-16T03:04:21;7.00;;;3.30;;
53857;SDS011;39763;51.188;6.690;2022-10-16T03:05:52;7.53;;;3.10;;
53857;SDS011;39763;51.188;6.690;2022-10-16T03:07:24;7.15;;;3.08;;
53857;SDS011;39763;51.188;6.690;2022-10-16T03:08:56;7.65;;;3.00;;
53857;SDS011;39763;51.188;6.690;2022-10-16T03:10:28;8.15;;;2.92;;
53857;SDS011;39763;51.188;6.690;2022-10-16T03:12:00;6.53;;;2.92;;
53857;SDS011;39763;51.188;6.690;2022-10-16T03:13:32;8.23;;;3.30;;
53857;SDS011;39763;51.188;6.690;2022-10-16T03:15:03;8.57;;;2.97;;
53857;SDS011;39763;51.188;6.690;2022-10-16T03:16:35;6.60;;;2.72;;
53857;SDS011;39763;51.188;6.690;2022-10-16T03:18:08;7.63;;;3.05;;
53857;SDS011;39763;51.188;6.690;2022-10-16T03:19:40;6.70;;;3.17;;
53857;SDS011;39763;51.188;6.690;2022-10-16T03:21:12;6.50;;;3.10;;
53857;SDS011;39763;51.188;6.690;2022-10-16T03:22:43;7.55;;;3.10;;
53857;SDS011;39763;51.188;6.690;2022-10-16T03:24:15;9.52;;;3.05;;
53857;SDS011;39763;51.188;6.690;2022-10-16T03:25:47;5.95;;;2.78;;
53857;SDS011;39763;51.188;6.690;2022-10-16T03:27:18;8.00;;;3.08;;
53857;SDS011;39763;51.188;6.690;2022-10-16T03:28:50;7.32;;;3.20;;
53857;SDS011;39763;51.188;6.690;2022-10-16T03:30:22;6.68;;;2.90;;
53857;SDS011;39763;51.188;6.690;2022-10-16T03:31:53;12.38;;;3.55;;
53857;SDS011;39763;51.188;6.690;2022-10-16T03:33:26;6.07;;;2.70;;
53857;SDS011;39763;51.188;6.690;2022-10-16T03:34:58;7.10;;;3.10;;
53857;SDS011;39763;51.188;6.690;2022-10-16T03:36:30;6.22;;;3.00;;
53857;SDS011;39763;51.188;6.690;2022-10-16T03:38:01;8.38;;;3.20;;
53857;SDS011;39763;51.188;6.690;2022-10-16T03:39:33;7.13;;;3.20;;
53857;SDS011;39763;51.188;6.690;2022-10-16T03:41:05;6.30;;;2.75;;
53857;SDS011;39763;51.188;6.690;2022-10-16T03:42:38;9.65;;;3.28;;
53857;SDS011;39763;51.188;6.690;2022-10-16T03:44:10;7.97;;;3.15;;
53857;SDS011;39763;51.188;6.690;2022-10-16T03:45:42;6.10;;;3.10;;
53857;SDS011;39763;51.188;6.690;2022-10-16T03:47:14;8.30;;;3.15;;
53857;SDS011;39763;51.188;6.690;2022-10-16T03:48:47;8.98;;;3.20;;
53857;SDS011;39763;51.188;6.690;2022-10-16T03:50:19;7.22;;;3.15;;
53857;SDS011;39763;51.188;6.690;2022-10-16T03:51:50;8.10;;;2.85;;
53857;SDS011;39763;51.188;6.690;2022-10-16T03:53:22;10.07;;;2.80;;
53857;SDS011;39763;51.188;6.690;2022-10-16T03:54:54;8.40;;;3.13;;
53857;SDS011;39763;51.188;6.690;2022-10-16T03:56:25;6.75;;;2.92;;
53857;SDS011;39763;51.188;6.690;2022-10-16T03:57:57;6.00;;;2.90;;
53857;SDS011;39763;51.188;6.690;2022-10-16T03:59:29;9.38;;;3.30;;
53857;SDS011;39763;51.188;6.690;2022-10-16T04:01:01;7.05;;;3.38;;
53857;SDS011;39763;51.188;6.690;2022-10-16T04:02:32;8.43;;;3.45;;
53857;SDS011;39763;51.188;6.690;2022-10-16T04:04:05;8.02;;;3.13;;
53857;SDS011;39763;51.188;6.690;2022-10-16T04:05:37;8.32;;;3.42;;
53857;SDS011;39763;51.188;6.690;2022-10-16T04:07:09;8.07;;;3.00;;
53857;SDS011;39763;51.188;6.690;2022-10-16T04:08:42;8.23;;;3.53;;
53857;SDS011;39763;51.188;6.690;2022-10-16T04:10:14;9.40;;;3.20;;
53857;SDS011;39763;51.188;6.690;2022-10-16T04:11:45;8.02;;;3.30;;
53857;SDS011;39763;51.188;6.690;2022-10-16T04:13:17;8.27;;;3.13;;
53857;SDS011;39763;51.188;6.690;2022-10-16T04:14:53;7.53;;;3.13;;
53857;SDS011;39763;51.188;6.690;2022-10-16T04:16:25;7.68;;;3.35;;
53857;SDS011;39763;51.188;6.690;2022-10-16T04:17:57;7.13;;;3.22;;
53857;SDS011;39763;51.188;6.690;2022-10-16T04:19:30;9.45;;;3.28;;
53857;SDS011;39763;51.188;6.690;2022-10-16T04:21:02;7.88;;;3.45;;
53857;SDS011;39763;51.188;6.690;2022-10-16T04:22:34;7.63;;;3.33;;
53857;SDS011;39763;51.188;6.690;2022-10-16T04:24:06;6.93;;;3.00;;
53857;SDS011;39763;51.188;6.690;2022-10-16T04:25:37;7.25;;;2.97;;
53857;SDS011;39763;51.188;6.690;2022-10-16T04:27:09;7.43;;;2.92;;
53857;SDS011;39763;51.188;6.690;2022-10-16T04:28:41;6.80;;;3.10;;
53857;SDS011;39763;51.188;6.690;2022-10-16T04:30:12;7.43;;;2.90;;
53857;SDS011;39763;51.188;6.690;2022-10-16T04:31:44;7.05;;;3.05;;
53857;SDS011;39763;51.188;6.690;2022-10-16T04:33:16;6.28;;;3.25;;
53857;SDS011;39763;51.188;6.690;2022-10-16T04:34:49;7.30;;;3.10;;
53857;SDS011;39763;51.188;6.690;2022-10-16T04:36:21;7.70;;;3.13;;
53857;SDS011;39763;51.188;6.690;2022-10-16T04:37:57;7.43;;;3.20;;
53857;SDS011;39763;51.188;6.690;2022-10-16T04:39:28;6.93;;;3.20;;
53857;SDS011;39763;51.188;6.690;2022-10-16T04:41:00;11.13;;;5.00;;
53857;SDS011;39763;51.188;6.690;2022-10-16T04:42:32;7.45;;;3.15;;
53857;SDS011;39763;51.188;6.690;2022-10-16T04:44:03;8.88;;;3.15;;
53857;SDS011;39763;51.188;6.690;2022-10-16T04:45:35;6.60;;;3.10;;
53857;SDS011;39763;51.188;6.690;2022-10-16T04:47:07;6.97;;;2.88;;
53857;SDS011;39763;51.188;6.690;2022-10-16T04:48:39;7.55;;;3.20;;
53857;SDS011;39763;51.188;6.690;2022-10-16T04:50:12;8.50;;;3.20;;
53857;SDS011;39763;51.188;6.690;2022-10-16T04:51:43;7.00;;;2.90;;
53857;SDS011;39763;51.188;6.690;2022-10-16T04:53:15;7.63;;;3.10;;
53857;SDS011;39763;51.188;6.690;2022-10-16T04:54:47;6.75;;;3.00;;
53857;SDS011;39763;51.188;6.690;2022-10-16T04:56:18;6.43;;;2.97;;
53857;SDS011;39763;51.188;6.690;2022-10-16T04:57:50;7.10;;;3.05;;
53857;SDS011;39763;51.188;6.690;2022-10-16T04:59:22;6.93;;;2.90;;
53857;SDS011;39763;51.188;6.690;2022-10-16T05:00:54;7.10;;;3.70;;
53857;SDS011;39763;51.188;6.690;2022-10-16T05:02:26;6.75;;;3.10;;
53857;SDS011;39763;51.188;6.690;2022-10-16T05:03:57;7.13;;;3.20;;
53857;SDS011;39763;51.188;6.690;2022-10-16T05:05:30;8.07;;;3.35;;
53857;SDS011;39763;51.188;6.690;2022-10-16T05:07:02;5.25;;;2.80;;
53857;SDS011;39763;51.188;6.690;2022-10-16T05:08:34;8.90;;;3.20;;
53857;SDS011;39763;51.188;6.690;2022-10-16T05:10:06;6.93;;;3.22;;
53857;SDS011;39763;51.188;6.690;2022-10-16T05:11:38;8.23;;;3.08;;
53857;SDS011;39763;51.188;6.690;2022-10-16T05:13:09;8.18;;;3.72;;
53857;SDS011;39763;51.188;6.690;2022-10-16T05:14:42;7.38;;;3.03;;
53857;SDS011;39763;51.188;6.690;2022-10-16T05:16:13;7.30;;;3.10;;
53857;SDS011;39763;51.188;6.690;2022-10-16T05:17:45;9.23;;;3.28;;
53857;SDS011;39763;51.188;6.690;2022-10-16T05:19:17;7.80;;;3.30;;
53857;SDS011;39763;51.188;6.690;2022-10-16T05:20:59;7.18;;;3.30;;
53857;SDS011;39763;51.188;6.690;2022-10-16T05:22:31;9.48;;;3.50;;
53857;SDS011;39763;51.188;6.690;2022-10-16T05:24:03;7.93;;;3.20;;
53857;SDS011;39763;51.188;6.690;2022-10-16T05:25:34;8.13;;;3.63;;
53857;SDS011;39763;51.188;6.690;2022-10-16T05:27:06;9.05;;;3.60;;
53857;SDS011;39763;51.188;6.690;2022-10-16T05:28:38;10.48;;;3.50;;
53857;SDS011;39763;51.188;6.690;2022-10-16T05:30:10;8.20;;;3.60;;
53857;SDS011;39763;51.188;6.690;2022-10-16T05:31:42;8.07;;;3.47;;
53857;SDS011;39763;51.188;6.690;2022-10-16T05:33:14;7.93;;;3.70;;
53857;SDS011;39763;51.188;6.690;2022-10-16T05:34:46;10.50;;;3.45;;
53857;SDS011;39763;51.188;6.690;2022-10-16T05:36:19;9.18;;;3.83;;
53857;SDS011;39763;51.188;6.690;2022-10-16T05:37:51;9.52;;;4.22;;
53857;SDS011;39763;51.188;6.690;2022-10-16T05:39:24;9.32;;;3.72;;
53857;SDS011;39763;51.188;6.690;2022-10-16T05:40:55;14.07;;;4.22;;
53857;SDS011;39763;51.188;6.690;2022-10-16T05:42:27;7.60;;;3.28;;
53857;SDS011;39763;51.188;6.690;2022-10-16T05:43:59;7.05;;;3.20;;
53857;SDS011;39763;51.188;6.690;2022-10-16T05:45:31;8.85;;;3.25;;
53857;SDS011;39763;51.188;6.690;2022-10-16T05:47:02;7.53;;;3.30;;
53857;SDS011;39763;51.188;6.690;2022-10-16T05:48:34;8.25;;;3.42;;
53857;SDS011;39763;51.188;6.690;2022-10-16T05:50:06;8.00;;;3.30;;
53857;SDS011;39763;51.188;6.690;2022-10-16T05:51:39;8.85;;;3.28;;
53857;SDS011;39763;51.188;6.690;2022-10-16T05:53:12;9.25;;;3.38;;
53857;SDS011;39763;51.188;6.690;2022-10-16T05:54:44;10.45;;;3.85;;
53857;SDS011;39763;51.188;6.690;2022-10-16T05:56:15;6.97;;;3.10;;
53857;SDS011;39763;51.188;6.690;2022-10-16T05:57:47;7.45;;;3.38;;
53857;SDS011;39763;51.188;6.690;2022-10-16T05:59:19;7.32;;;3.05;;
53857;SDS011;39763;51.188;6.690;2022-10-16T06:00:54;6.78;;;2.80;;
53857;SDS011;39763;51.188;6.690;2022-10-16T06:02:26;7.13;;;3.00;;
53857;SDS011;39763;51.188;6.690;2022-10-16T06:03:58;6.20;;;2.95;;
53857;SDS011;39763;51.188;6.690;2022-10-16T06:05:30;9.68;;;3.22;;
53857;SDS011;39763;51.188;6.690;2022-10-16T06:07:03;7.90;;;3.15;;
53857;SDS011;39763;51.188;6.690;2022-10-16T06:08:34;8.20;;;3.22;;
53857;SDS011;39763;51.188;6.690;2022-10-16T06:10:07;9.32;;;3.40;;
53857;SDS011;39763;51.188;6.690;2022-10-16T06:11:40;8.82;;;3.10;;
53857;SDS011;39763;51.188;6.690;2022-10-16T06:13:11;10.07;;;4.22;;
53857;SDS011;39763;51.188;6.690;2022-10-16T06:14:44;8.27;;;3.10;;
53857;SDS011;39763;51.188;6.690;2022-10-16T06:16:20;7.15;;;3.30;;
53857;SDS011;39763;51.188;6.690;2022-10-16T06:17:52;10.90;;;4.28;;
53857;SDS011;39763;51.188;6.690;2022-10-16T06:19:24;11.30;;;4.05;;
53857;SDS011;39763;51.188;6.690;2022-10-16T06:20:56;9.27;;;3.30;;
53857;SDS011;39763;51.188;6.690;2022-10-16T06:22:29;8.32;;;3.08;;
53857;SDS011;39763;51.188;6.690;2022-10-16T06:24:01;6.65;;;3.30;;
53857;SDS011;39763;51.188;6.690;2022-10-16T06:25:33;8.07;;;3.33;;
53857;SDS011;39763;51.188;6.690;2022-10-16T06:27:05;8.90;;;3.83;;
53857;SDS011;39763;51.188;6.690;2022-10-16T06:28:36;7.45;;;3.30;;
53857;SDS011;39763;51.188;6.690;2022-10-16T06:30:09;10.93;;;4.07;;
53857;SDS011;39763;51.188;6.690;2022-10-16T06:31:41;7.82;;;3.40;;
53857;SDS011;39763;51.188;6.690;2022-10-16T06:33:13;9.15;;;3.85;;
53857;SDS011;39763;51.188;6.690;2022-10-16T06:34:45;7.43;;;3.17;;
53857;SDS011;39763;51.188;6.690;2022-10-16T06:36:16;8.95;;;3.40;;
53857;SDS011;39763;51.188;6.690;2022-10-16T06:37:52;9.90;;;3.33;;
53857;SDS011;39763;51.188;6.690;2022-10-16T06:39:23;8.40;;;3.40;;
53857;SDS011;39763;51.188;6.690;2022-10-16T06:40:55;7.95;;;3.38;;
53857;SDS011;39763;51.188;6.690;2022-10-16T06:42:27;11.05;;;3.70;;
53857;SDS011;39763;51.188;6.690;2022-10-16T06:44:00;7.43;;;3.15;;
53857;SDS011;39763;51.188;6.690;2022-10-16T06:45:32;8.07;;;3.63;;
53857;SDS011;39763;51.188;6.690;2022-10-16T06:47:04;8.70;;;3.30;;
53857;SDS011;39763;51.188;6.690;2022-10-16T06:48:35;9.98;;;3.60;;
53857;SDS011;39763;51.188;6.690;2022-10-16T06:50:08;10.25;;;3.53;;
53857;SDS011;39763;51.188;6.690;2022-10-16T06:51:40;8.10;;;3.50;;
53857;SDS011;39763;51.188;6.690;2022-10-16T06:53:15;8.65;;;3.58;;
53857;SDS011;39763;51.188;6.690;2022-10-16T06:54:47;9.13;;;3.85;;
53857;SDS011;39763;51.188;6.690;2022-10-16T06:56:19;8.30;;;3.30;;
53857;SDS011;39763;51.188;6.690;2022-10-16T06:57:52;10.77;;;3.90;;
53857;SDS011;39763;51.188;6.690;2022-10-16T06:59:23;9.32;;;3.22;;
53857;SDS011;39763;51.188;6.690;2022-10-16T07:00:55;8.00;;;3.40;;
53857;SDS011;39763;51.188;6.690;2022-10-16T07:02:28;9.60;;;3.50;;
53857;SDS011;39763;51.188;6.690;2022-10-16T07:04:00;7.18;;;3.10;;
53857;SDS011;39763;51.188;6.690;2022-10-16T07:05:36;7.93;;;3.40;;
53857;SDS011;39763;51.188;6.690;2022-10-16T07:07:08;8.10;;;3.10;;
53857;SDS011;39763;51.188;6.690;2022-10-16T07:08:42;8.52;;;3.25;;
53857;SDS011;39763;51.188;6.690;2022-10-16T07:10:15;8.10;;;3.85;;
53857;SDS011;39763;51.188;6.690;2022-10-16T07:11:47;8.82;;;3.17;;
53857;SDS011;39763;51.188;6.690;2022-10-16T07:13:19;7.07;;;3.15;;
53857;SDS011;39763;51.188;6.690;2022-10-16T07:14:51;7.50;;;3.20;;
53857;SDS011;39763;51.188;6.690;2022-10-16T07:16:24;8.90;;;3.45;;
53857;SDS011;39763;51.188;6.690;2022-10-16T07:17:57;8.20;;;3.20;;
53857;SDS011;39763;51.188;6.690;2022-10-16T07:19:29;9.30;;;3.85;;
53857;SDS011;39763;51.188;6.690;2022-10-16T07:21:05;10.35;;;4.00;;
53857;SDS011;39763;51.188;6.690;2022-10-16T07:22:38;8.55;;;3.28;;
53857;SDS011;39763;51.188;6.690;2022-10-16T07:24:12;9.73;;;3.50;;
53857;SDS011;39763;51.188;6.690;2022-10-16T07:25:45;8.20;;;3.38;;
53857;SDS011;39763;51.188;6.690;2022-10-16T07:27:16;8.82;;;3.90;;
53857;SDS011;39763;51.188;6.690;2022-10-16T07:28:48;9.82;;;3.83;;
53857;SDS011;39763;51.188;6.690;2022-10-16T07:30:20;7.95;;;3.20;;
53857;SDS011;39763;51.188;6.690;2022-10-16T07:31:52;8.55;;;3.45;;
53857;SDS011;39763;51.188;6.690;2022-10-16T07:33:24;9.68;;;3.50;;
53857;SDS011;39763;51.188;6.690;2022-10-16T07:34:55;9.25;;;3.67;;
53857;SDS011;39763;51.188;6.690;2022-10-16T07:36:27;8.38;;;3.53;;
53857;SDS011;39763;51.188;6.690;2022-10-16T07:37:59;8.65;;;3.88;;
53857;SDS011;39763;51.188;6.690;2022-10-16T07:39:32;7.95;;;3.38;;
53857;SDS011;39763;51.188;6.690;2022-10-16T07:41:04;7.95;;;3.63;;
53857;SDS011;39763;51.188;6.690;2022-10-16T07:42:37;8.55;;;3.78;;
53857;SDS011;39763;51.188;6.690;2022-10-16T07:44:09;7.57;;;3.55;;
53857;SDS011;39763;51.188;6.690;2022-10-16T07:45:47;8.98;;;3.17;;
53857;SDS011;39763;51.188;6.690;2022-10-16T07:47:20;9.50;;;3.33;;
53857;SDS011;39763;51.188;6.690;2022-10-16T07:48:52;9.00;;;3.67;;
53857;SDS011;39763;51.188;6.690;2022-10-16T07:50:24;9.73;;;3.20;;
53857;SDS011;39763;51.188;6.690;2022-10-16T07:51:56;8.00;;;3.22;;
53857;SDS011;39763;51.188;6.690;2022-10-16T07:53:27;6.70;;;2.85;;
53857;SDS011;39763;51.188;6.690;2022-10-16T07:55:01;6.32;;;2.90;;
53857;SDS011;39763;51.188;6.690;2022-10-16T07:56:32;6.63;;;3.13;;
53857;SDS011;39763;51.188;6.690;2022-10-16T07:58:04;8.15;;;3.47;;
53857;SDS011;39763;51.188;6.690;2022-10-16T07:59:36;7.00;;;3.20;;
53857;SDS011;39763;51.188;6.690;2022-10-16T08:01:09;6.00;;;2.97;;
53857;SDS011;39763;51.188;6.690;2022-10-16T08:02:42;6.78;;;2.90;;
53857;SDS011;39763;51.188;6.690;2022-10-16T08:04:13;7.30;;;2.97;;
53857;SDS011;39763;51.188;6.690;2022-10-16T08:05:45;7.80;;;2.80;;
53857;SDS011;39763;51.188;6.690;2022-10-16T08:07:17;6.35;;;2.85;;
53857;SDS011;39763;51.188;6.690;2022-10-16T08:08:48;6.38;;;2.53;;
53857;SDS011;39763;51.188;6.690;2022-10-16T08:10:22;7.57;;;2.92;;
53857;SDS011;39763;51.188;6.690;2022-10-16T08:11:55;6.97;;;2.70;;
53857;SDS011;39763;51.188;6.690;2022-10-16T08:13:32;5.15;;;2.70;;
53857;SDS011;39763;51.188;6.690;2022-10-16T08:15:05;8.55;;;3.00;;
53857;SDS011;39763;51.188;6.690;2022-10-16T08:16:37;6.65;;;2.75;;
53857;SDS011;39763;51.188;6.690;2022-10-16T08:18:09;5.63;;;2.78;;
53857;SDS011;39763;51.188;6.690;2022-10-16T08:19:44;8.20;;;2.80;;
53857;SDS011;39763;51.188;6.690;2022-10-16T08:21:17;5.60;;;2.80;;
53857;SDS011;39763;51.188;6.690;2022-10-16T08:22:52;7.22;;;2.83;;
53857;SDS011;39763;51.188;6.690;2022-10-16T08:24:25;6.75;;;2.60;;
53857;SDS011;39763;51.188;6.690;2022-10-16T08:26:02;6.25;;;2.80;;
53857;SDS011;39763;51.188;6.690;2022-10-16T08:27:35;6.60;;;2.60;;
53857;SDS011;39763;51.188;6.690;2022-10-16T08:29:07;4.75;;;2.58;;
53857;SDS011;39763;51.188;6.690;2022-10-16T08:30:38;6.40;;;2.90;;
53857;SDS011;39763;51.188;6.690;2022-10-16T08:32:11;7.30;;;2.97;;
53857;SDS011;39763;51.188;6.690;2022-10-16T08:33:44;5.25;;;2.50;;
53857;SDS011;39763;51.188;6.690;2022-10-16T08:35:17;7.90;;;2.80;;
53857;SDS011;39763;51.188;6.690;2022-10-16T08:36:49;4.68;;;2.40;;
53857;SDS011;39763;51.188;6.690;2022-10-16T08:38:23;8.40;;;2.90;;
53857;SDS011;39763;51.188;6.690;2022-10-16T08:39:55;7.10;;;2.58;;
53857;SDS011;39763;51.188;6.690;2022-10-16T08:43:35;8.30;;;2.40;;
53857;SDS011;39763;51.188;6.690;2022-10-16T08:45:32;5.60;;;2.25;;
53857;SDS011;39763;51.188;6.690;2022-10-16T08:47:12;4.68;;;2.20;;
53857;SDS011;39763;51.188;6.690;2022-10-16T08:48:49;7.80;;;2.58;;
53857;SDS011;39763;51.188;6.690;2022-10-16T08:50:23;5.80;;;2.20;;
53857;SDS011;39763;51.188;6.690;2022-10-16T08:51:56;3.40;;;1.90;;
53857;SDS011;39763;51.188;6.690;2022-10-16T08:53:30;4.78;;;2.30;;
53857;SDS011;39763;51.188;6.690;2022-10-16T08:55:27;5.15;;;2.10;;
53857;SDS011;39763;51.188;6.690;2022-10-16T08:57:09;4.18;;;2.17;;
53857;SDS011;39763;51.188;6.690;2022-10-16T08:58:43;5.35;;;2.28;;
53857;SDS011;39763;51.188;6.690;2022-10-16T09:00:21;6.82;;;2.42;;
53857;SDS011;39763;51.188;6.690;2022-10-16T09:01:52;6.90;;;2.15;;
53857;SDS011;39763;51.188;6.690;2022-10-16T09:03:28;5.53;;;2.20;;
53857;SDS011;39763;51.188;6.690;2022-10-16T09:05:17;7.22;;;2.10;;
53857;SDS011;39763;51.188;6.690;2022-10-16T09:06:57;6.55;;;2.20;;
53857;SDS011;39763;51.188;6.690;2022-10-16T09:08:34;5.72;;;2.08;;
53857;SDS011;39763;51.188;6.690;2022-10-16T09:10:18;4.85;;;2.10;;
53857;SDS011;39763;51.188;6.690;2022-10-16T09:12:00;5.70;;;2.28;;
53857;SDS011;39763;51.188;6.690;2022-10-16T09:13:43;6.07;;;2.40;;
53857;SDS011;39763;51.188;6.690;2022-10-16T09:15:24;6.20;;;2.05;;
53857;SDS011;39763;51.188;6.690;2022-10-16T09:17:04;4.10;;;2.00;;
53857;SDS011;39763;51.188;6.690;2022-10-16T09:18:52;4.18;;;2.05;;
53857;SDS011;39763;51.188;6.690;2022-10-16T09:20:31;5.35;;;2.25;;
53857;SDS011;39763;51.188;6.690;2022-10-16T09:22:10;6.13;;;2.30;;
53857;SDS011;39763;51.188;6.690;2022-10-16T09:23:45;4.85;;;2.05;;
53857;SDS011;39763;51.188;6.690;2022-10-16T09:25:20;4.00;;;2.10;;